sensor_id;sensor_type;location;lat;lon;timestamp;temperature;humidity
71128;SHT30;59249;59.736;30.568;2023-05-15T00:00:49;12.48;66.53
71128;SHT30;59249;59.736;30.568;2023-05-15T00:03:18;12.43;67.01
71128;SHT30;59249;59.736;30.568;2023-05-15T00:05:55;12.41;66.91
71128;SHT30;59249;59.736;30.568;2023-05-15T00:08:25;12.40;66.87
71128;SHT30;59249;59.736;30.568;2023-05-15T00:10:54;12.38;66.95
71128;SHT30;59249;59.736;30.568;2023-05-15T00:13:29;12.38;66.54
71128;SHT30;59249;59.736;30.568;2023-05-15T00:15:58;12.36;66.31
71128;SHT30;59249;59.736;30.568;2023-05-15T00:18:27;12.32;66.71
71128;SHT30;59249;59.736;30.568;2023-05-15T00:21:01;12.29;67.73
71128;SHT30;59249;59.736;30.568;2023-05-15T00:23:30;12.27;68.17
71128;SHT30;59249;59.736;30.568;2023-05-15T00:25:59;12.29;67.91
71128;SHT30;59249;59.736;30.568;2023-05-15T00:28:27;12.25;68.15
71128;SHT30;59249;59.736;30.568;2023-05-15T00:30:56;12.22;68.01
71128;SHT30;59249;59.736;30.568;2023-05-15T00:33:25;12.17;69.86
71128;SHT30;59249;59.736;30.568;2023-05-15T00:35:54;12.20;69.69
71128;SHT30;59249;59.736;30.568;2023-05-15T00:38:24;12.21;68.51
71128;SHT30;59249;59.736;30.568;2023-05-15T00:40:55;12.22;68.04
71128;SHT30;59249;59.736;30.568;2023-05-15T00:43:25;12.24;68.14
71128;SHT30;59249;59.736;30.568;2023-05-15T00:45:56;12.27;67.97
71128;SHT30;59249;59.736;30.568;2023-05-15T00:48:33;12.28;67.33
71128;SHT30;59249;59.736;30.568;2023-05-15T00:51:02;12.29;68.27
71128;SHT30;59249;59.736;30.568;2023-05-15T00:53:32;12.32;68.04
71128;SHT30;59249;59.736;30.568;2023-05-15T00:56:02;12.35;67.48
71128;SHT30;59249;59.736;30.568;2023-05-15T00:58:34;12.36;67.39
71128;SHT30;59249;59.736;30.568;2023-05-15T01:01:04;12.38;67.83
71128;SHT30;59249;59.736;30.568;2023-05-15T01:03:36;12.41;67.50
71128;SHT30;59249;59.736;30.568;2023-05-15T01:06:11;12.44;67.54
71128;SHT30;59249;59.736;30.568;2023-05-15T01:08:45;12.41;68.15
71128;SHT30;59249;59.736;30.568;2023-05-15T01:11:16;12.40;68.06
71128;SHT30;59249;59.736;30.568;2023-05-15T01:13:45;12.42;67.53
71128;SHT30;59249;59.736;30.568;2023-05-15T01:16:14;12.42;68.12
71128;SHT30;59249;59.736;30.568;2023-05-15T01:18:43;12.39;68.87
71128;SHT30;59249;59.736;30.568;2023-05-15T01:21:45;12.34;68.48
71128;SHT30;59249;59.736;30.568;2023-05-15T01:24:42;12.32;68.54
71128;SHT30;59249;59.736;30.568;2023-05-15T01:27:18;12.27;68.50
71128;SHT30;59249;59.736;30.568;2023-05-15T01:29:59;12.27;68.82
71128;SHT30;59249;59.736;30.568;2023-05-15T01:32:54;12.22;68.75
71128;SHT30;59249;59.736;30.568;2023-05-15T01:35:37;12.21;68.63
71128;SHT30;59249;59.736;30.568;2023-05-15T01:38:18;12.18;68.95
71128;SHT30;59249;59.736;30.568;2023-05-15T01:40:58;12.17;68.74
71128;SHT30;59249;59.736;30.568;2023-05-15T01:43:33;12.19;68.51
71128;SHT30;59249;59.736;30.568;2023-05-15T01:46:08;12.18;68.47
71128;SHT30;59249;59.736;30.568;2023-05-15T01:48:40;12.20;68.69
71128;SHT30;59249;59.736;30.568;2023-05-15T01:51:13;12.24;69.16
71128;SHT30;59249;59.736;30.568;2023-05-15T01:53:46;12.27;69.23
71128;SHT30;59249;59.736;30.568;2023-05-15T01:56:22;12.27;69.27
71128;SHT30;59249;59.736;30.568;2023-05-15T01:58:55;12.30;68.54
71128;SHT30;59249;59.736;30.568;2023-05-15T02:01:31;12.35;68.34
71128;SHT30;59249;59.736;30.568;2023-05-15T02:04:02;12.47;68.30
71128;SHT30;59249;59.736;30.568;2023-05-15T02:06:32;12.57;68.40
71128;SHT30;59249;59.736;30.568;2023-05-15T02:09:02;12.79;67.77
71128;SHT30;59249;59.736;30.568;2023-05-15T02:11:33;12.92;67.59
71128;SHT30;59249;59.736;30.568;2023-05-15T02:14:06;13.02;67.46
71128;SHT30;59249;59.736;30.568;2023-05-15T02:16:36;13.23;66.71
71128;SHT30;59249;59.736;30.568;2023-05-15T02:19:07;13.53;66.05
71128;SHT30;59249;59.736;30.568;2023-05-15T02:21:36;13.89;64.93
71128;SHT30;59249;59.736;30.568;2023-05-15T02:24:06;14.24;64.05
71128;SHT30;59249;59.736;30.568;2023-05-15T02:26:51;14.58;62.96
71128;SHT30;59249;59.736;30.568;2023-05-15T02:29:35;14.63;61.35
71128;SHT30;59249;59.736;30.568;2023-05-15T02:32:15;14.63;61.32
71128;SHT30;59249;59.736;30.568;2023-05-15T02:34:54;14.69;60.79
71128;SHT30;59249;59.736;30.568;2023-05-15T02:37:34;14.74;60.70
71128;SHT30;59249;59.736;30.568;2023-05-15T02:40:06;14.86;59.82
71128;SHT30;59249;59.736;30.568;2023-05-15T02:42:40;14.96;59.33
71128;SHT30;59249;59.736;30.568;2023-05-15T02:45:13;14.94;58.77
71128;SHT30;59249;59.736;30.568;2023-05-15T02:47:42;15.05;58.52
71128;SHT30;59249;59.736;30.568;2023-05-15T02:50:12;15.04;58.77
71128;SHT30;59249;59.736;30.568;2023-05-15T02:52:44;15.13;58.55
71128;SHT30;59249;59.736;30.568;2023-05-15T02:55:14;15.11;57.96
71128;SHT30;59249;59.736;30.568;2023-05-15T02:57:44;15.20;58.03
71128;SHT30;59249;59.736;30.568;2023-05-15T03:00:15;15.23;58.10
71128;SHT30;59249;59.736;30.568;2023-05-15T03:02:44;15.28;58.11
71128;SHT30;59249;59.736;30.568;2023-05-15T03:05:13;15.33;57.59
71128;SHT30;59249;59.736;30.568;2023-05-15T03:07:41;15.42;57.90
71128;SHT30;59249;59.736;30.568;2023-05-15T03:10:13;15.46;57.64
71128;SHT30;59249;59.736;30.568;2023-05-15T03:12:42;15.49;57.96
71128;SHT30;59249;59.736;30.568;2023-05-15T03:15:11;15.46;58.40
71128;SHT30;59249;59.736;30.568;2023-05-15T03:17:41;15.46;58.65
71128;SHT30;59249;59.736;30.568;2023-05-15T03:20:11;15.45;58.61
71128;SHT30;59249;59.736;30.568;2023-05-15T03:22:42;15.44;58.81
71128;SHT30;59249;59.736;30.568;2023-05-15T03:25:14;15.45;59.08
71128;SHT30;59249;59.736;30.568;2023-05-15T03:27:46;15.42;59.06
71128;SHT30;59249;59.736;30.568;2023-05-15T03:30:19;15.43;59.18
71128;SHT30;59249;59.736;30.568;2023-05-15T03:32:50;15.49;59.64
71128;SHT30;59249;59.736;30.568;2023-05-15T03:35:23;15.51;59.71
71128;SHT30;59249;59.736;30.568;2023-05-15T03:37:52;15.51;59.45
71128;SHT30;59249;59.736;30.568;2023-05-15T03:40:21;15.50;59.89
71128;SHT30;59249;59.736;30.568;2023-05-15T03:42:54;15.50;60.27
71128;SHT30;59249;59.736;30.568;2023-05-15T03:45:22;15.53;59.95
71128;SHT30;59249;59.736;30.568;2023-05-15T03:47:53;15.59;59.48
71128;SHT30;59249;59.736;30.568;2023-05-15T03:50:22;15.64;59.06
71128;SHT30;59249;59.736;30.568;2023-05-15T03:52:52;15.64;58.64
71128;SHT30;59249;59.736;30.568;2023-05-15T03:55:20;15.69;58.14
71128;SHT30;59249;59.736;30.568;2023-05-15T03:57:49;15.74;58.31
71128;SHT30;59249;59.736;30.568;2023-05-15T04:00:19;15.80;57.96
71128;SHT30;59249;59.736;30.568;2023-05-15T04:02:57;15.89;58.09
71128;SHT30;59249;59.736;30.568;2023-05-15T04:05:31;15.93;57.69
71128;SHT30;59249;59.736;30.568;2023-05-15T04:08:07;15.99;57.72
71128;SHT30;59249;59.736;30.568;2023-05-15T04:10:39;16.16;57.59
71128;SHT30;59249;59.736;30.568;2023-05-15T04:13:19;16.32;57.43
71128;SHT30;59249;59.736;30.568;2023-05-15T04:15:52;16.47;57.18
71128;SHT30;59249;59.736;30.568;2023-05-15T04:18:25;16.46;57.44
71128;SHT30;59249;59.736;30.568;2023-05-15T04:20:56;16.50;57.55
71128;SHT30;59249;59.736;30.568;2023-05-15T04:23:28;16.60;57.41
71128;SHT30;59249;59.736;30.568;2023-05-15T04:26:05;16.60;57.58
71128;SHT30;59249;59.736;30.568;2023-05-15T04:28:37;16.79;57.44
71128;SHT30;59249;59.736;30.568;2023-05-15T04:31:25;16.88;57.00
71128;SHT30;59249;59.736;30.568;2023-05-15T04:34:04;17.05;56.67
71128;SHT30;59249;59.736;30.568;2023-05-15T04:36:35;17.16;56.26
71128;SHT30;59249;59.736;30.568;2023-05-15T04:39:10;17.31;55.78
71128;SHT30;59249;59.736;30.568;2023-05-15T04:41:46;17.41;55.31
71128;SHT30;59249;59.736;30.568;2023-05-15T04:44:16;17.60;55.06
71128;SHT30;59249;59.736;30.568;2023-05-15T04:46:46;17.75;54.68
71128;SHT30;59249;59.736;30.568;2023-05-15T04:49:21;17.90;53.90
71128;SHT30;59249;59.736;30.568;2023-05-15T04:51:54;18.03;53.80
71128;SHT30;59249;59.736;30.568;2023-05-15T04:54:25;18.14;53.62
71128;SHT30;59249;59.736;30.568;2023-05-15T04:56:59;18.21;53.53
71128;SHT30;59249;59.736;30.568;2023-05-15T04:59:33;18.33;53.72
71128;SHT30;59249;59.736;30.568;2023-05-15T05:02:11;18.47;53.47
71128;SHT30;59249;59.736;30.568;2023-05-15T05:04:42;18.58;53.53
71128;SHT30;59249;59.736;30.568;2023-05-15T05:07:12;18.61;53.44
71128;SHT30;59249;59.736;30.568;2023-05-15T05:09:41;18.65;53.81
71128;SHT30;59249;59.736;30.568;2023-05-15T05:12:09;18.70;53.85
71128;SHT30;59249;59.736;30.568;2023-05-15T05:14:38;18.80;53.51
71128;SHT30;59249;59.736;30.568;2023-05-15T05:17:08;18.91;53.37
71128;SHT30;59249;59.736;30.568;2023-05-15T05:19:37;19.01;52.99
71128;SHT30;59249;59.736;30.568;2023-05-15T05:22:08;19.14;52.39
71128;SHT30;59249;59.736;30.568;2023-05-15T05:24:36;19.26;52.13
71128;SHT30;59249;59.736;30.568;2023-05-15T05:27:05;19.38;51.83
71128;SHT30;59249;59.736;30.568;2023-05-15T05:29:34;19.45;51.83
71128;SHT30;59249;59.736;30.568;2023-05-15T05:32:04;19.48;51.56
71128;SHT30;59249;59.736;30.568;2023-05-15T05:34:34;19.57;51.20
71128;SHT30;59249;59.736;30.568;2023-05-15T05:37:03;19.78;50.21
71128;SHT30;59249;59.736;30.568;2023-05-15T05:39:34;19.87;49.67
71128;SHT30;59249;59.736;30.568;2023-05-15T05:42:04;20.04;49.15
71128;SHT30;59249;59.736;30.568;2023-05-15T05:44:32;20.15;48.72
71128;SHT30;59249;59.736;30.568;2023-05-15T05:47:01;20.33;48.66
71128;SHT30;59249;59.736;30.568;2023-05-15T05:49:30;20.49;48.87
71128;SHT30;59249;59.736;30.568;2023-05-15T05:52:05;20.47;48.11
71128;SHT30;59249;59.736;30.568;2023-05-15T05:54:36;20.46;47.82
71128;SHT30;59249;59.736;30.568;2023-05-15T05:57:05;20.54;46.76
71128;SHT30;59249;59.736;30.568;2023-05-15T05:59:34;20.68;46.46
71128;SHT30;59249;59.736;30.568;2023-05-15T06:02:04;20.84;46.50
71128;SHT30;59249;59.736;30.568;2023-05-15T06:04:32;20.96;46.29
71128;SHT30;59249;59.736;30.568;2023-05-15T06:07:02;21.07;46.35
71128;SHT30;59249;59.736;30.568;2023-05-15T06:09:30;21.28;46.34
71128;SHT30;59249;59.736;30.568;2023-05-15T06:12:00;21.41;46.39
71128;SHT30;59249;59.736;30.568;2023-05-15T06:14:31;21.34;46.39
71128;SHT30;59249;59.736;30.568;2023-05-15T06:17:00;21.36;48.02
71128;SHT30;59249;59.736;30.568;2023-05-15T06:19:29;21.45;48.60
71128;SHT30;59249;59.736;30.568;2023-05-15T06:21:58;21.59;48.88
71128;SHT30;59249;59.736;30.568;2023-05-15T06:24:26;21.80;48.80
71128;SHT30;59249;59.736;30.568;2023-05-15T06:26:55;21.80;48.17
71128;SHT30;59249;59.736;30.568;2023-05-15T06:29:26;21.75;47.76
71128;SHT30;59249;59.736;30.568;2023-05-15T06:31:55;21.84;47.51
71128;SHT30;59249;59.736;30.568;2023-05-15T06:34:24;21.85;46.63
71128;SHT30;59249;59.736;30.568;2023-05-15T06:36:52;21.65;47.63
71128;SHT30;59249;59.736;30.568;2023-05-15T06:39:21;21.58;47.31
71128;SHT30;59249;59.736;30.568;2023-05-15T06:41:50;21.61;47.29
71128;SHT30;59249;59.736;30.568;2023-05-15T06:44:25;21.69;47.90
71128;SHT30;59249;59.736;30.568;2023-05-15T06:46:54;21.53;48.00
71128;SHT30;59249;59.736;30.568;2023-05-15T06:49:23;21.61;48.38
71128;SHT30;59249;59.736;30.568;2023-05-15T06:51:52;21.76;48.51
71128;SHT30;59249;59.736;30.568;2023-05-15T06:54:22;21.79;49.16
71128;SHT30;59249;59.736;30.568;2023-05-15T06:56:50;21.87;48.64
71128;SHT30;59249;59.736;30.568;2023-05-15T06:59:19;21.87;48.00
71128;SHT30;59249;59.736;30.568;2023-05-15T07:01:49;21.89;47.26
71128;SHT30;59249;59.736;30.568;2023-05-15T07:04:18;21.96;46.95
71128;SHT30;59249;59.736;30.568;2023-05-15T07:06:47;21.99;47.05
71128;SHT30;59249;59.736;30.568;2023-05-15T07:09:16;22.11;47.12
71128;SHT30;59249;59.736;30.568;2023-05-15T07:11:44;22.20;46.85
71128;SHT30;59249;59.736;30.568;2023-05-15T07:14:13;22.20;46.05
71128;SHT30;59249;59.736;30.568;2023-05-15T07:16:42;22.36;45.22
71128;SHT30;59249;59.736;30.568;2023-05-15T07:19:16;22.45;44.90
71128;SHT30;59249;59.736;30.568;2023-05-15T07:21:45;22.56;44.51
71128;SHT30;59249;59.736;30.568;2023-05-15T07:24:14;22.64;43.60
71128;SHT30;59249;59.736;30.568;2023-05-15T07:26:43;22.66;43.65
71128;SHT30;59249;59.736;30.568;2023-05-15T07:29:25;22.77;43.78
71128;SHT30;59249;59.736;30.568;2023-05-15T07:31:54;22.87;43.65
71128;SHT30;59249;59.736;30.568;2023-05-15T07:34:24;22.89;42.94
71128;SHT30;59249;59.736;30.568;2023-05-15T07:36:53;22.98;42.77
71128;SHT30;59249;59.736;30.568;2023-05-15T07:39:21;22.98;42.29
71128;SHT30;59249;59.736;30.568;2023-05-15T07:41:50;23.05;42.47
71128;SHT30;59249;59.736;30.568;2023-05-15T07:44:19;23.11;42.32
71128;SHT30;59249;59.736;30.568;2023-05-15T07:46:47;23.24;41.61
71128;SHT30;59249;59.736;30.568;2023-05-15T07:49:16;23.31;41.62
71128;SHT30;59249;59.736;30.568;2023-05-15T07:51:46;23.41;40.99
71128;SHT30;59249;59.736;30.568;2023-05-15T07:54:15;23.52;40.29
71128;SHT30;59249;59.736;30.568;2023-05-15T07:56:44;23.59;38.87
71128;SHT30;59249;59.736;30.568;2023-05-15T07:59:13;23.62;37.66
71128;SHT30;59249;59.736;30.568;2023-05-15T08:01:41;23.57;37.20
71128;SHT30;59249;59.736;30.568;2023-05-15T08:04:11;23.57;37.40
71128;SHT30;59249;59.736;30.568;2023-05-15T08:06:40;23.53;37.37
71128;SHT30;59249;59.736;30.568;2023-05-15T08:09:12;23.55;36.64
71128;SHT30;59249;59.736;30.568;2023-05-15T08:11:40;23.49;36.81
71128;SHT30;59249;59.736;30.568;2023-05-15T08:14:09;23.67;36.86
71128;SHT30;59249;59.736;30.568;2023-05-15T08:16:40;23.59;35.84
71128;SHT30;59249;59.736;30.568;2023-05-15T08:19:08;23.70;35.91
71128;SHT30;59249;59.736;30.568;2023-05-15T08:21:38;23.81;36.86
71128;SHT30;59249;59.736;30.568;2023-05-15T08:24:07;23.69;36.88
71128;SHT30;59249;59.736;30.568;2023-05-15T08:26:37;23.68;37.20
71128;SHT30;59249;59.736;30.568;2023-05-15T08:29:06;23.69;36.20
71128;SHT30;59249;59.736;30.568;2023-05-15T08:31:34;23.67;36.10
71128;SHT30;59249;59.736;30.568;2023-05-15T08:34:03;23.63;36.28
71128;SHT30;59249;59.736;30.568;2023-05-15T08:36:32;23.62;36.31
71128;SHT30;59249;59.736;30.568;2023-05-15T08:39:03;23.54;36.32
71128;SHT30;59249;59.736;30.568;2023-05-15T08:41:39;23.57;36.20
71128;SHT30;59249;59.736;30.568;2023-05-15T08:44:11;23.42;35.88
71128;SHT30;59249;59.736;30.568;2023-05-15T08:46:40;23.47;36.06
71128;SHT30;59249;59.736;30.568;2023-05-15T08:49:15;23.40;35.61
71128;SHT30;59249;59.736;30.568;2023-05-15T08:51:49;23.38;35.62
71128;SHT30;59249;59.736;30.568;2023-05-15T08:54:18;23.42;35.59
71128;SHT30;59249;59.736;30.568;2023-05-15T08:56:48;23.53;35.97
71128;SHT30;59249;59.736;30.568;2023-05-15T08:59:17;23.38;35.73
71128;SHT30;59249;59.736;30.568;2023-05-15T09:01:46;23.43;35.73
71128;SHT30;59249;59.736;30.568;2023-05-15T09:04:16;23.43;35.90
71128;SHT30;59249;59.736;30.568;2023-05-15T09:06:46;23.41;36.13
71128;SHT30;59249;59.736;30.568;2023-05-15T09:09:17;23.63;36.09
71128;SHT30;59249;59.736;30.568;2023-05-15T09:11:49;23.68;36.38
71128;SHT30;59249;59.736;30.568;2023-05-15T09:14:18;23.70;36.15
71128;SHT30;59249;59.736;30.568;2023-05-15T09:16:48;23.73;35.74
71128;SHT30;59249;59.736;30.568;2023-05-15T09:19:20;23.72;36.07
71128;SHT30;59249;59.736;30.568;2023-05-15T09:21:49;23.78;35.99
71128;SHT30;59249;59.736;30.568;2023-05-15T09:24:20;23.88;35.66
71128;SHT30;59249;59.736;30.568;2023-05-15T09:27:03;23.97;35.23
71128;SHT30;59249;59.736;30.568;2023-05-15T09:29:34;24.02;35.19
71128;SHT30;59249;59.736;30.568;2023-05-15T09:32:06;23.92;35.36
71128;SHT30;59249;59.736;30.568;2023-05-15T09:34:37;23.82;34.77
71128;SHT30;59249;59.736;30.568;2023-05-15T09:37:08;23.81;34.68
71128;SHT30;59249;59.736;30.568;2023-05-15T09:39:41;23.85;34.80
71128;SHT30;59249;59.736;30.568;2023-05-15T09:42:13;23.84;35.08
71128;SHT30;59249;59.736;30.568;2023-05-15T09:44:44;23.98;34.84
71128;SHT30;59249;59.736;30.568;2023-05-15T09:47:14;24.02;34.63
71128;SHT30;59249;59.736;30.568;2023-05-15T09:49:44;24.20;34.97
71128;SHT30;59249;59.736;30.568;2023-05-15T09:52:15;24.33;34.64
71128;SHT30;59249;59.736;30.568;2023-05-15T09:54:45;24.51;34.46
71128;SHT30;59249;59.736;30.568;2023-05-15T09:57:21;24.59;34.09
71128;SHT30;59249;59.736;30.568;2023-05-15T09:59:50;24.55;34.44
71128;SHT30;59249;59.736;30.568;2023-05-15T10:02:23;24.51;34.54
71128;SHT30;59249;59.736;30.568;2023-05-15T10:04:55;24.59;34.48
71128;SHT30;59249;59.736;30.568;2023-05-15T10:07:28;24.78;34.62
71128;SHT30;59249;59.736;30.568;2023-05-15T10:09:58;24.90;34.55
71128;SHT30;59249;59.736;30.568;2023-05-15T10:12:34;25.06;34.00
71128;SHT30;59249;59.736;30.568;2023-05-15T10:15:04;25.20;34.17
71128;SHT30;59249;59.736;30.568;2023-05-15T10:17:35;25.24;33.64
71128;SHT30;59249;59.736;30.568;2023-05-15T10:20:07;25.38;33.44
71128;SHT30;59249;59.736;30.568;2023-05-15T10:22:40;25.50;33.41
71128;SHT30;59249;59.736;30.568;2023-05-15T10:25:20;25.41;33.06
71128;SHT30;59249;59.736;30.568;2023-05-15T10:27:53;25.07;33.01
71128;SHT30;59249;59.736;30.568;2023-05-15T10:30:23;24.80;33.38
71128;SHT30;59249;59.736;30.568;2023-05-15T10:32:54;24.72;33.27
71128;SHT30;59249;59.736;30.568;2023-05-15T10:35:25;24.84;33.61
71128;SHT30;59249;59.736;30.568;2023-05-15T10:37:56;25.11;33.60
71128;SHT30;59249;59.736;30.568;2023-05-15T10:40:28;25.24;34.25
71128;SHT30;59249;59.736;30.568;2023-05-15T10:43:00;25.31;33.41
71128;SHT30;59249;59.736;30.568;2023-05-15T10:45:29;25.30;33.84
71128;SHT30;59249;59.736;30.568;2023-05-15T10:48:00;25.37;33.54
71128;SHT30;59249;59.736;30.568;2023-05-15T10:50:29;25.37;33.15
71128;SHT30;59249;59.736;30.568;2023-05-15T10:52:59;25.64;33.36
71128;SHT30;59249;59.736;30.568;2023-05-15T10:55:30;25.79;33.67
71128;SHT30;59249;59.736;30.568;2023-05-15T10:58:00;25.92;33.66
71128;SHT30;59249;59.736;30.568;2023-05-15T11:00:29;25.88;33.12
71128;SHT30;59249;59.736;30.568;2023-05-15T11:02:59;25.82;33.22
71128;SHT30;59249;59.736;30.568;2023-05-15T11:05:28;25.81;33.59
71128;SHT30;59249;59.736;30.568;2023-05-15T11:08:24;25.77;33.52
71128;SHT30;59249;59.736;30.568;2023-05-15T11:10:53;25.83;33.86
71128;SHT30;59249;59.736;30.568;2023-05-15T11:13:24;25.77;33.39
71128;SHT30;59249;59.736;30.568;2023-05-15T11:15:53;25.69;33.56
71128;SHT30;59249;59.736;30.568;2023-05-15T11:18:24;25.69;33.95
71128;SHT30;59249;59.736;30.568;2023-05-15T11:21:06;25.55;33.27
71128;SHT30;59249;59.736;30.568;2023-05-15T11:23:40;25.46;33.70
71128;SHT30;59249;59.736;30.568;2023-05-15T11:26:12;25.28;33.72
71128;SHT30;59249;59.736;30.568;2023-05-15T11:28:42;25.00;33.71
71128;SHT30;59249;59.736;30.568;2023-05-15T11:31:13;24.78;33.54
71128;SHT30;59249;59.736;30.568;2023-05-15T11:33:42;24.59;34.15
71128;SHT30;59249;59.736;30.568;2023-05-15T11:36:13;24.48;34.31
71128;SHT30;59249;59.736;30.568;2023-05-15T11:38:42;24.20;34.30
71128;SHT30;59249;59.736;30.568;2023-05-15T11:41:19;24.13;34.90
71128;SHT30;59249;59.736;30.568;2023-05-15T11:43:56;23.99;35.25
71128;SHT30;59249;59.736;30.568;2023-05-15T11:46:29;24.08;35.44
71128;SHT30;59249;59.736;30.568;2023-05-15T11:49:00;24.26;35.34
71128;SHT30;59249;59.736;30.568;2023-05-15T11:51:30;24.55;35.11
71128;SHT30;59249;59.736;30.568;2023-05-15T11:54:00;24.86;34.16
71128;SHT30;59249;59.736;30.568;2023-05-15T11:56:32;25.07;34.03
71128;SHT30;59249;59.736;30.568;2023-05-15T11:59:02;25.22;33.64
71128;SHT30;59249;59.736;30.568;2023-05-15T12:01:39;25.43;32.94
71128;SHT30;59249;59.736;30.568;2023-05-15T12:04:12;25.61;32.79
71128;SHT30;59249;59.736;30.568;2023-05-15T12:06:43;25.64;32.49
71128;SHT30;59249;59.736;30.568;2023-05-15T12:09:16;25.74;32.52
71128;SHT30;59249;59.736;30.568;2023-05-15T12:11:50;25.85;32.12
71128;SHT30;59249;59.736;30.568;2023-05-15T12:14:27;25.84;32.07
71128;SHT30;59249;59.736;30.568;2023-05-15T12:16:59;25.86;32.40
71128;SHT30;59249;59.736;30.568;2023-05-15T12:19:30;25.90;31.84
71128;SHT30;59249;59.736;30.568;2023-05-15T12:21:59;25.90;31.51
71128;SHT30;59249;59.736;30.568;2023-05-15T12:24:30;25.85;32.02
71128;SHT30;59249;59.736;30.568;2023-05-15T12:26:59;25.94;32.47
71128;SHT30;59249;59.736;30.568;2023-05-15T12:29:30;25.93;32.31
71128;SHT30;59249;59.736;30.568;2023-05-15T12:31:59;26.00;32.97
71128;SHT30;59249;59.736;30.568;2023-05-15T12:34:28;26.07;32.25
71128;SHT30;59249;59.736;30.568;2023-05-15T12:36:58;26.13;31.92
71128;SHT30;59249;59.736;30.568;2023-05-15T12:39:27;26.23;31.97
71128;SHT30;59249;59.736;30.568;2023-05-15T12:41:57;26.29;32.01
71128;SHT30;59249;59.736;30.568;2023-05-15T12:44:26;26.35;31.96
71128;SHT30;59249;59.736;30.568;2023-05-15T12:46:57;26.32;31.62
71128;SHT30;59249;59.736;30.568;2023-05-15T12:49:27;26.37;31.42
71128;SHT30;59249;59.736;30.568;2023-05-15T12:51:55;26.40;31.72
71128;SHT30;59249;59.736;30.568;2023-05-15T12:54:25;26.33;31.76
71128;SHT30;59249;59.736;30.568;2023-05-15T12:56:55;26.06;31.86
71128;SHT30;59249;59.736;30.568;2023-05-15T12:59:25;25.81;32.60
71128;SHT30;59249;59.736;30.568;2023-05-15T13:01:55;25.65;32.59
71128;SHT30;59249;59.736;30.568;2023-05-15T13:04:24;25.47;32.69
71128;SHT30;59249;59.736;30.568;2023-05-15T13:06:53;25.44;32.93
71128;SHT30;59249;59.736;30.568;2023-05-15T13:09:22;25.59;33.18
71128;SHT30;59249;59.736;30.568;2023-05-15T13:11:54;25.59;32.88
71128;SHT30;59249;59.736;30.568;2023-05-15T13:14:23;25.85;32.73
71128;SHT30;59249;59.736;30.568;2023-05-15T13:16:59;25.85;32.33
71128;SHT30;59249;59.736;30.568;2023-05-15T13:19:29;25.81;32.75
71128;SHT30;59249;59.736;30.568;2023-05-15T13:21:59;25.81;32.38
71128;SHT30;59249;59.736;30.568;2023-05-15T13:24:28;26.02;32.32
71128;SHT30;59249;59.736;30.568;2023-05-15T13:26:57;26.04;32.08
71128;SHT30;59249;59.736;30.568;2023-05-15T13:29:26;26.19;31.92
71128;SHT30;59249;59.736;30.568;2023-05-15T13:31:56;26.24;31.51
71128;SHT30;59249;59.736;30.568;2023-05-15T13:34:25;26.32;31.86
71128;SHT30;59249;59.736;30.568;2023-05-15T13:36:55;26.55;31.62
71128;SHT30;59249;59.736;30.568;2023-05-15T13:39:24;26.67;31.97
71128;SHT30;59249;59.736;30.568;2023-05-15T13:41:52;26.74;31.79
71128;SHT30;59249;59.736;30.568;2023-05-15T13:44:21;26.73;31.11
71128;SHT30;59249;59.736;30.568;2023-05-15T13:46:50;26.57;30.97
71128;SHT30;59249;59.736;30.568;2023-05-15T13:49:20;26.48;31.09
71128;SHT30;59249;59.736;30.568;2023-05-15T13:51:49;26.35;31.06
71128;SHT30;59249;59.736;30.568;2023-05-15T13:54:18;26.41;31.28
71128;SHT30;59249;59.736;30.568;2023-05-15T13:56:46;26.41;31.44
71128;SHT30;59249;59.736;30.568;2023-05-15T13:59:17;26.46;31.23
71128;SHT30;59249;59.736;30.568;2023-05-15T14:01:46;26.31;31.62
71128;SHT30;59249;59.736;30.568;2023-05-15T14:04:15;26.20;31.45
71128;SHT30;59249;59.736;30.568;2023-05-15T14:06:45;26.27;31.45
71128;SHT30;59249;59.736;30.568;2023-05-15T14:09:14;26.16;31.23
71128;SHT30;59249;59.736;30.568;2023-05-15T14:11:43;26.25;31.27
71128;SHT30;59249;59.736;30.568;2023-05-15T14:14:12;26.35;31.43
71128;SHT30;59249;59.736;30.568;2023-05-15T14:16:41;26.44;31.15
71128;SHT30;59249;59.736;30.568;2023-05-15T14:19:09;26.60;30.79
71128;SHT30;59249;59.736;30.568;2023-05-15T14:21:38;26.81;30.89
71128;SHT30;59249;59.736;30.568;2023-05-15T14:24:09;27.08;30.76
71128;SHT30;59249;59.736;30.568;2023-05-15T14:26:37;27.42;30.60
71128;SHT30;59249;59.736;30.568;2023-05-15T14:29:06;27.59;30.06
71128;SHT30;59249;59.736;30.568;2023-05-15T14:31:35;27.71;30.18
71128;SHT30;59249;59.736;30.568;2023-05-15T14:34:05;27.67;30.16
71128;SHT30;59249;59.736;30.568;2023-05-15T14:36:34;27.88;30.57
71128;SHT30;59249;59.736;30.568;2023-05-15T14:39:03;28.12;30.30
71128;SHT30;59249;59.736;30.568;2023-05-15T14:41:34;28.23;29.82
71128;SHT30;59249;59.736;30.568;2023-05-15T14:44:03;28.25;29.66
71128;SHT30;59249;59.736;30.568;2023-05-15T14:46:32;28.04;29.87
71128;SHT30;59249;59.736;30.568;2023-05-15T14:49:03;27.93;29.80
71128;SHT30;59249;59.736;30.568;2023-05-15T14:51:32;27.95;29.27
71128;SHT30;59249;59.736;30.568;2023-05-15T14:54:00;28.06;29.61
71128;SHT30;59249;59.736;30.568;2023-05-15T14:56:32;28.13;29.27
71128;SHT30;59249;59.736;30.568;2023-05-15T14:59:01;28.32;29.65
71128;SHT30;59249;59.736;30.568;2023-05-15T15:01:30;28.69;29.17
71128;SHT30;59249;59.736;30.568;2023-05-15T15:03:59;28.83;29.00
71128;SHT30;59249;59.736;30.568;2023-05-15T15:06:28;29.03;28.70
71128;SHT30;59249;59.736;30.568;2023-05-15T15:08:58;29.15;28.59
71128;SHT30;59249;59.736;30.568;2023-05-15T15:11:26;28.88;28.83
71128;SHT30;59249;59.736;30.568;2023-05-15T15:13:56;27.78;30.51
71128;SHT30;59249;59.736;30.568;2023-05-15T15:16:25;26.78;32.04
71128;SHT30;59249;59.736;30.568;2023-05-15T15:18:56;26.16;32.64
71128;SHT30;59249;59.736;30.568;2023-05-15T15:21:25;25.97;33.66
71128;SHT30;59249;59.736;30.568;2023-05-15T15:23:53;26.10;33.79
71128;SHT30;59249;59.736;30.568;2023-05-15T15:26:22;25.97;33.61
71128;SHT30;59249;59.736;30.568;2023-05-15T15:28:51;25.89;34.17
71128;SHT30;59249;59.736;30.568;2023-05-15T15:31:24;25.97;33.68
71128;SHT30;59249;59.736;30.568;2023-05-15T15:33:55;26.08;33.48
71128;SHT30;59249;59.736;30.568;2023-05-15T15:36:24;26.22;33.52
71128;SHT30;59249;59.736;30.568;2023-05-15T15:38:53;26.53;33.15